AAL192 KDFW-LEBL
Flight info
| Callsign | AAL192 |
|---|---|
| Flight time | N/A |
| Altitude | 33000 |
| Route | ZACHH4 BSKAT DCT JEBEP DCT HUMBO DCT TIIDE DCT GVR DCT EMPTY DCT FOXEE DCT JHW DCT SAEZE DCT MPV/N0484F350 DCT EBONY DCT ALLRY/M084F360 NATY XETBO/N0478F370 DCT GIPER/M083F370 DCT TULTA/N0478F370 DCT NENEM DCT BADRU P152 PPN/N0480F380 P152 RONKO M601 MARIO/N0476F370 DCT POSSY DCT GRAUS |
| Aircraft | B77W/H-SDE1E2E3FGHIJ2J3J4J5M1RWXY/LB1D1 |
Departure
| Time | 2026-05-07 02:44 |
|---|---|
| Airport | Dallas Fort Worth International Airport (KDFW) |
Arrival
| Time | N/A |
|---|---|
| Airport | Josep Tarradellas Barcelona-El Prat Airport (LEBL) |
| Time | Latitude | Longitude | Altitude | Speed | Heading |
|---|---|---|---|---|---|
| 2026-05-07 02:43 | 32.94484 | -97.04443 | 2745 ft | 194 kts | 9° |
| 2026-05-07 02:44 | 32.95909 | -97.04207 | 3040 ft | 219 kts | 8° |
| 2026-05-07 02:44 | 32.97464 | -97.03968 | 3612 ft | 232 kts | 8° |
| 2026-05-07 02:44 | 32.99117 | -97.03725 | 4217 ft | 246 kts | 7° |
| 2026-05-07 02:44 | 33.00855 | -97.03476 | 4904 ft | 256 kts | 6° |
| 2026-05-07 02:45 | 33.02644 | -97.03224 | 5652 ft | 264 kts | 5° |
| 2026-05-07 02:45 | 33.04433 | -97.02669 | 6337 ft | 274 kts | 25° |
| 2026-05-07 02:45 | 33.05993 | -97.01289 | 7050 ft | 285 kts | 43° |
| 2026-05-07 02:45 | 33.07357 | -96.99528 | 7640 ft | 293 kts | 41° |
| 2026-05-07 02:46 | 33.08689 | -96.97646 | 8120 ft | 307 kts | 63° |
| 2026-05-07 02:46 | 33.09190 | -96.95155 | 8759 ft | 312 kts | 87° |
| 2026-05-07 02:46 | 33.09211 | -96.92542 | 9343 ft | 318 kts | 101° |
| 2026-05-07 02:46 | 33.08649 | -96.89980 | 9935 ft | 322 kts | 111° |
| 2026-05-07 02:47 | 33.07981 | -96.87391 | 10505 ft | 334 kts | 110° |
| 2026-05-07 02:47 | 33.07360 | -96.84667 | 10697 ft | 360 kts | 107° |
| 2026-05-07 02:47 | 33.06767 | -96.81636 | 10906 ft | 387 kts | 105° |
| 2026-05-07 02:47 | 33.06208 | -96.78352 | 11207 ft | 408 kts | 103° |
| 2026-05-07 02:48 | 33.05730 | -96.75232 | 11739 ft | 419 kts | 102° |
| 2026-05-07 02:48 | 33.05241 | -96.71727 | 12544 ft | 428 kts | 102° |
| 2026-05-07 02:48 | 33.04768 | -96.68249 | 13400 ft | 434 kts | 102° |